Time;durP1;ratioP1;P1;durP2;ratioP2;P2;SDS_P1;SDS_P2;PMS_P1;PMS_P2;Temp;Humidity;BMP_temperature;BMP_pressure;BME280_temperature;BME280_humidity;BME280_pressure;Samples;Min_cycle;Max_cycle;Signal;HPM_P1;HPM_P2
2022/08/18 00:01:21;;;;;;;10.40;9.10;;;;;;;18.85;86.61;100375.91;106042;1278;71383;-82
2022/08/18 00:03:50;;;;;;;10.00;8.90;;;;;;;18.85;86.69;100371.54;105721;1280;73669;-84
2022/08/18 00:06:27;;;;;;;10.00;9.10;;;;;;;18.83;86.85;100372.52;107090;1277;61824;-83
2022/08/18 00:08:57;;;;;;;12.30;9.10;;;;;;;18.82;86.78;100377.72;105909;1279;61798;-85
2022/08/18 00:11:24;;;;;;;10.50;9.40;;;;;;;18.79;87.14;100382.93;106587;1277;76466;-85
2022/08/18 00:13:51;;;;;;;10.60;9.10;;;;;;;18.78;87.34;100384.02;106552;1277;69814;-84
2022/08/18 00:16:18;;;;;;;11.10;9.50;;;;;;;18.78;87.41;100387.70;105886;1279;74043;-83
2022/08/18 00:18:45;;;;;;;10.10;9.00;;;;;;;18.77;87.55;100392.05;105403;1279;62508;-82
2022/08/18 00:21:12;;;;;;;10.60;9.40;;;;;;;18.77;88.07;100395.69;106057;1277;60353;-83
2022/08/18 00:23:39;;;;;;;10.40;9.40;;;;;;;18.77;88.60;100391.89;105984;1279;74935;-83
2022/08/18 00:26:09;;;;;;;14.90;9.90;;;;;;;18.79;88.49;100390.23;106171;1277;72881;-84
2022/08/18 00:28:35;;;;;;;10.30;9.20;;;;;;;18.80;88.86;100393.33;106057;1279;73233;-84
2022/08/18 00:31:07;;;;;;;11.10;9.40;;;;;;;18.82;88.82;100393.74;107465;1277;63018;-83
2022/08/18 00:33:34;;;;;;;10.50;9.20;;;;;;;18.85;88.74;100384.67;107522;1279;60614;-84
2022/08/18 00:36:01;;;;;;;10.60;9.50;;;;;;;18.89;88.90;100386.75;108009;1277;75380;-87
2022/08/18 00:38:28;;;;;;;12.10;8.80;;;;;;;18.93;88.42;100381.13;107964;1277;70141;-84
2022/08/18 00:40:56;;;;;;;12.20;8.80;;;;;;;18.97;88.01;100377.33;108030;1277;73064;-88
2022/08/18 00:43:35;;;;;;;10.10;8.70;;;;;;;19.01;87.72;100379.39;107978;1278;62462;-84
2022/08/18 00:46:24;;;;;;;9.70;8.60;;;;;;;19.04;87.36;100382.42;107040;1279;61256;-85
2022/08/18 00:48:51;;;;;;;12.40;9.10;;;;;;;19.07;87.15;100391.14;106868;1278;74739;-89
2022/08/18 00:51:43;;;;;;;11.20;9.10;;;;;;;19.09;87.03;100383.16;106623;1277;71563;-86
2022/08/18 00:54:32;;;;;;;10.90;9.00;;;;;;;19.11;86.87;100385.39;106543;1277;74100;-84
2022/08/18 00:57:03;;;;;;;10.60;8.60;;;;;;;19.12;86.98;100380.41;106671;1277;62225;-88
2022/08/18 01:00:13;;;;;;;10.70;9.60;;;;;;;19.13;86.73;100385.59;106487;1279;61367;-85
2022/08/18 01:02:48;;;;;;;11.10;9.10;;;;;;;19.14;86.67;100387.12;105733;1284;75003;-84
2022/08/18 01:05:26;;;;;;;10.00;8.80;;;;;;;19.14;86.55;100385.68;106511;1279;71773;-85
2022/08/18 01:07:53;;;;;;;12.70;8.90;;;;;;;19.15;86.32;100385.26;107189;1277;72837;-85
2022/08/18 01:10:22;;;;;;;10.20;9.00;;;;;;;19.15;86.27;100385.14;107041;1279;62342;-83
2022/08/18 01:12:56;;;;;;;11.80;9.20;;;;;;;19.14;86.35;100390.35;107488;1279;60543;-83
2022/08/18 01:15:26;;;;;;;11.00;9.60;;;;;;;19.15;86.37;100393.16;107077;1279;75067;-84
2022/08/18 01:21:49;;;;;;;10.60;9.50;;;;;;;19.15;86.29;100393.45;107170;1279;72924;-83
2022/08/18 01:23:50;;;;;;;13.50;9.90;;;;;;;19.14;86.35;100393.58;106409;1277;62240;-82
2022/08/18 01:26:18;;;;;;;12.80;10.00;;;;;;;19.14;86.46;100388.67;105799;1279;61515;-84
2022/08/18 01:28:48;;;;;;;11.90;10.70;;;;;;;19.12;86.58;100389.56;106100;1277;76791;-86
2022/08/18 01:31:40;;;;;;;12.50;10.80;;;;;;;19.12;86.60;100393.18;106532;1278;73181;-83
2022/08/18 01:34:23;;;;;;;12.80;11.50;;;;;;;19.11;86.68;100388.86;105591;1279;73589;-83
2022/08/18 01:36:51;;;;;;;15.40;12.30;;;;;;;19.12;86.94;100389.17;105929;1279;61326;-84
2022/08/18 01:39:19;;;;;;;14.80;12.70;;;;;;;19.13;87.49;100389.42;106275;1279;61786;-85
2022/08/18 01:42:06;;;;;;;15.50;13.00;;;;;;;19.14;87.62;100390.94;106347;1279;77417;-84
2022/08/18 01:44:40;;;;;;;15.00;13.20;;;;;;;19.15;87.90;100389.35;106011;1279;71714;-83
2022/08/18 01:47:09;;;;;;;15.30;13.70;;;;;;;19.16;87.80;100384.70;105634;1279;74363;-84
2022/08/18 01:49:38;;;;;;;15.80;13.60;;;;;;;19.17;87.83;100384.77;105787;1279;63468;-83
2022/08/18 01:52:06;;;;;;;15.50;13.80;;;;;;;19.18;87.58;100386.17;106141;1279;61687;-83
2022/08/18 01:54:33;;;;;;;16.90;15.10;;;;;;;19.18;87.62;100383.44;105538;1279;74665;-83
2022/08/18 01:57:00;;;;;;;17.40;15.20;;;;;;;19.18;87.83;100384.89;106393;1278;72636;-83
2022/08/18 01:59:30;;;;;;;17.70;14.90;;;;;;;19.17;87.69;100384.65;105859;1279;73659;-83
2022/08/18 02:01:58;;;;;;;15.30;13.70;;;;;;;19.15;87.55;100387.03;106794;1277;62425;-83
2022/08/18 02:04:32;;;;;;;12.70;11.40;;;;;;;19.11;87.08;100384.71;105513;1279;61283;-81
2022/08/18 02:07:07;;;;;;;11.60;10.40;;;;;;;19.04;86.64;100389.46;106055;1278;76514;-83
2022/08/18 02:09:36;;;;;;;11.40;9.90;;;;;;;18.96;86.47;100388.17;106211;1278;71500;-84
2022/08/18 02:12:04;;;;;;;11.90;9.80;;;;;;;18.89;86.44;100390.23;106243;1277;73064;-82
2022/08/18 02:14:32;;;;;;;10.40;9.40;;;;;;;18.81;86.50;100398.32;105842;1279;63610;-83
2022/08/18 02:17:02;;;;;;;11.50;10.20;;;;;;;18.71;86.67;100403.68;105754;1278;61215;-84
2022/08/18 02:19:37;;;;;;;11.60;10.40;;;;;;;18.63;86.99;100407.23;105927;1279;75135;-82
2022/08/18 02:22:06;;;;;;;15.50;11.60;;;;;;;18.56;87.16;100405.77;105961;1279;73106;-83
2022/08/18 02:24:33;;;;;;;13.30;11.30;;;;;;;18.50;87.31;100403.13;105900;1277;72937;-84
2022/08/18 02:27:00;;;;;;;14.00;10.80;;;;;;;18.46;87.52;100400.94;105473;1279;62725;-83
2022/08/18 02:29:27;;;;;;;12.60;11.30;;;;;;;18.41;87.56;100400.92;106020;1278;61584;-83
2022/08/18 02:31:54;;;;;;;12.00;10.80;;;;;;;18.37;87.88;100401.70;107281;1278;75084;-83
2022/08/18 02:34:22;;;;;;;13.70;12.30;;;;;;;18.33;88.02;100403.29;106277;1279;72597;-83
2022/08/18 02:36:48;;;;;;;19.90;15.10;;;;;;;18.30;88.41;100407.92;105750;1279;72871;-83
2022/08/18 02:39:16;;;;;;;22.70;19.20;;;;;;;18.28;90.11;100403.79;106327;1277;61745;-84
2022/08/18 02:41:43;;;;;;;23.60;21.00;;;;;;;18.27;90.91;100403.67;106407;1279;61222;-84
2022/08/18 02:44:10;;;;;;;24.70;21.10;;;;;;;18.26;91.88;100402.63;106057;1279;74748;-85
2022/08/18 02:46:37;;;;;;;27.70;23.90;;;;;;;18.24;93.44;100403.66;105538;1278;72253;-83
2022/08/18 02:49:06;;;;;;;28.50;25.10;;;;;;;18.26;94.11;100397.52;106154;1277;73043;-83
2022/08/18 02:51:34;;;;;;;29.50;24.70;;;;;;;18.29;95.47;100400.02;106142;1277;62631;-84
2022/08/18 02:54:01;;;;;;;29.50;25.40;;;;;;;18.36;96.88;100401.56;106061;1278;61849;-83
2022/08/18 02:56:30;;;;;;;30.20;26.50;;;;;;;18.45;97.28;100402.47;105775;1278;76568;-84
2022/08/18 02:59:15;;;;;;;29.10;24.70;;;;;;;18.55;97.23;100401.50;106443;1277;71271;-84
2022/08/18 03:01:47;;;;;;;27.30;24.40;;;;;;;18.63;96.82;100404.38;106175;1279;72993;-84
2022/08/18 03:04:18;;;;;;;26.10;23.00;;;;;;;18.71;96.11;100408.73;106082;1279;61963;-84
2022/08/18 03:06:49;;;;;;;25.80;23.00;;;;;;;18.78;95.49;100404.33;105828;1279;61428;-84
2022/08/18 03:09:17;;;;;;;26.20;22.60;;;;;;;18.82;94.88;100402.17;106396;1279;75126;-84
2022/08/18 03:11:44;;;;;;;23.90;21.20;;;;;;;18.87;94.42;100397.00;106173;1278;71360;-82
2022/08/18 03:14:15;;;;;;;24.50;22.00;;;;;;;18.91;94.41;100395.31;106005;1278;74192;-84
2022/08/18 03:16:44;;;;;;;26.70;22.50;;;;;;;18.93;94.32;100393.38;105870;1279;63630;-84
2022/08/18 03:19:25;;;;;;;24.80;22.10;;;;;;;18.95;94.02;100395.67;106172;1279;61411;-84
2022/08/18 03:21:54;;;;;;;26.30;23.40;;;;;;;18.96;94.10;100395.48;106107;1279;74868;-85
2022/08/18 03:24:25;;;;;;;27.10;23.30;;;;;;;18.97;94.39;100399.86;105663;1279;72950;-84
2022/08/18 03:26:56;;;;;;;26.30;23.20;;;;;;;19.00;94.05;100401.21;105877;1279;74350;-84
2022/08/18 03:29:23;;;;;;;29.10;24.20;;;;;;;19.01;93.69;100400.04;105982;1277;62302;-83
2022/08/18 03:31:57;;;;;;;28.10;24.50;;;;;;;19.03;93.67;100402.40;106565;1277;61259;-83
2022/08/18 03:34:23;;;;;;;27.40;24.50;;;;;;;19.03;93.77;100400.56;106649;1277;74389;-83
2022/08/18 03:36:51;;;;;;;26.90;24.10;;;;;;;19.04;93.55;100407.80;106920;1278;71403;-83
2022/08/18 03:39:21;;;;;;;26.80;23.90;;;;;;;19.05;93.42;100407.60;106028;1279;72932;-84
2022/08/18 03:41:53;;;;;;;27.00;24.10;;;;;;;19.06;93.05;100409.81;106656;1279;61193;-84
2022/08/18 03:44:35;;;;;;;26.30;23.20;;;;;;;19.06;93.00;100404.23;105898;1279;61309;-83
2022/08/18 03:47:03;;;;;;;28.50;24.70;;;;;;;19.06;92.92;100409.45;106137;1277;75961;-85
2022/08/18 03:49:32;;;;;;;26.70;23.50;;;;;;;19.06;92.77;100408.12;105858;1278;71332;-83
2022/08/18 03:52:00;;;;;;;28.70;24.60;;;;;;;19.06;92.80;100408.58;106392;1277;72781;-87
2022/08/18 03:54:30;;;;;;;29.00;25.40;;;;;;;19.04;92.86;100409.90;105771;1277;62431;-83
2022/08/18 03:56:59;;;;;;;30.80;26.10;;;;;;;19.04;92.85;100413.70;106394;1278;60133;-83
2022/08/18 03:59:29;;;;;;;30.70;26.50;;;;;;;19.03;92.69;100413.21;106116;1277;75013;-83
2022/08/18 04:01:56;;;;;;;31.90;26.30;;;;;;;19.04;92.88;100414.45;105963;1279;71585;-85
2022/08/18 04:04:26;;;;;;;29.60;25.80;;;;;;;19.03;93.06;100412.06;105569;1279;72401;-83
2022/08/18 04:06:59;;;;;;;32.60;27.70;;;;;;;19.02;92.64;100415.73;105822;1279;62234;-83
2022/08/18 04:09:29;;;;;;;33.80;27.50;;;;;;;19.02;92.83;100417.59;106214;1278;60858;-82
2022/08/18 04:11:57;;;;;;;35.20;28.60;;;;;;;19.01;92.83;100419.66;106436;1277;76764;-85
2022/08/18 04:14:30;;;;;;;33.20;27.90;;;;;;;19.04;93.10;100415.90;106201;1278;71604;-81
2022/08/18 04:16:58;;;;;;;35.50;29.00;;;;;;;19.06;92.92;100422.94;106362;1278;72968;-82
2022/08/18 04:19:25;;;;;;;32.30;28.00;;;;;;;19.07;92.80;100419.36;106045;1279;61843;-81
2022/08/18 04:21:55;;;;;;;33.90;27.90;;;;;;;19.08;92.75;100423.46;106062;1279;61239;-82
2022/08/18 04:24:24;;;;;;;32.20;27.70;;;;;;;19.10;92.87;100428.30;106501;1279;76966;-81
2022/08/18 04:26:55;;;;;;;31.10;27.50;;;;;;;19.11;92.71;100436.85;105920;1277;72391;-81
2022/08/18 04:29:22;;;;;;;31.10;27.60;;;;;;;19.10;92.51;100447.20;105855;1278;74713;-81
2022/08/18 04:31:50;;;;;;;34.50;27.80;;;;;;;19.09;92.57;100446.29;106350;1279;61991;-81
2022/08/18 04:34:19;;;;;;;31.80;26.50;;;;;;;19.09;92.57;100446.08;106256;1277;61646;-81
2022/08/18 04:36:46;;;;;;;35.50;29.40;;;;;;;19.09;92.93;100443.86;105571;1279;74596;-81
2022/08/18 04:39:13;;;;;;;34.50;28.70;;;;;;;19.12;92.82;100452.42;105783;1279;71385;-81
2022/08/18 04:41:42;;;;;;;33.30;28.60;;;;;;;19.15;92.85;100453.08;106200;1278;73112;-80
2022/08/18 04:44:11;;;;;;;31.10;27.30;;;;;;;19.20;92.54;100460.27;106537;1278;62053;-82
2022/08/18 04:46:41;;;;;;;33.40;27.90;;;;;;;19.23;92.63;100461.02;106208;1279;61776;-82
2022/08/18 04:49:09;;;;;;;32.50;27.30;;;;;;;19.25;92.43;100458.98;105962;1279;73333;-81
2022/08/18 04:51:41;;;;;;;31.00;27.00;;;;;;;19.28;92.63;100454.95;106288;1278;71400;-82
2022/08/18 04:54:28;;;;;;;33.20;27.40;;;;;;;19.32;92.29;100454.91;106367;1279;74446;-83
2022/08/18 04:56:54;;;;;;;28.00;24.90;;;;;;;19.35;92.04;100459.19;106044;1278;61321;-81
2022/08/18 04:59:21;;;;;;;30.90;26.10;;;;;;;19.38;92.09;100458.44;105870;1279;61260;-82
2022/08/18 05:01:48;;;;;;;29.20;24.80;;;;;;;19.40;91.98;100459.27;106388;1279;74959;-81
2022/08/18 05:04:16;;;;;;;31.90;26.10;;;;;;;19.41;91.86;100460.11;105631;1279;72503;-81
2022/08/18 05:06:44;;;;;;;30.10;25.40;;;;;;;19.46;91.87;100458.31;105633;1279;73285;-82
2022/08/18 05:09:13;;;;;;;30.50;24.90;;;;;;;19.52;91.98;100460.27;105563;1279;61888;-82
2022/08/18 05:11:49;;;;;;;28.60;24.20;;;;;;;19.59;91.79;100462.58;105638;1279;61784;-81
2022/08/18 05:14:17;;;;;;;30.80;25.00;;;;;;;19.63;91.82;100461.06;106249;1278;75057;-82
2022/08/18 05:16:44;;;;;;;32.50;24.60;;;;;;;19.67;91.95;100459.67;106319;1279;71167;-82
2022/08/18 05:19:20;;;;;;;31.60;23.80;;;;;;;19.72;91.88;100459.25;105814;1278;73014;-82
2022/08/18 05:21:49;;;;;;;27.90;23.30;;;;;;;19.79;91.59;100458.58;105765;1279;62204;-81
2022/08/18 05:24:20;;;;;;;27.50;22.60;;;;;;;19.82;91.24;100462.09;105671;1279;61138;-83
2022/08/18 05:26:50;;;;;;;26.80;23.90;;;;;;;19.85;91.04;100462.35;105823;1279;74948;-81
2022/08/18 05:29:21;;;;;;;29.20;23.40;;;;;;;19.87;90.79;100460.93;105660;1279;72564;-82
2022/08/18 05:31:51;;;;;;;25.90;22.20;;;;;;;19.91;90.72;100459.91;105908;1278;71564;-82
2022/08/18 05:34:20;;;;;;;25.80;21.60;;;;;;;19.93;90.52;100466.73;106024;1278;63478;-82
2022/08/18 05:36:50;;;;;;;22.90;20.40;;;;;;;19.97;90.33;100472.61;105610;1279;61537;-83
2022/08/18 05:39:20;;;;;;;23.90;21.00;;;;;;;20.00;89.88;100476.55;105823;1278;75954;-87
2022/08/18 05:42:10;;;;;;;24.00;20.40;;;;;;;20.03;89.67;100475.05;105901;1278;70741;-82
2022/08/18 05:44:41;;;;;;;26.20;21.20;;;;;;;20.04;89.33;100474.14;106043;1277;72965;-84
2022/08/18 05:47:29;;;;;;;26.20;21.30;;;;;;;20.05;88.99;100472.34;105266;1279;61964;-82
2022/08/18 05:50:04;;;;;;;24.10;20.50;;;;;;;20.13;89.13;100470.26;105665;1281;60616;-82
2022/08/18 05:52:38;;;;;;;23.80;20.90;;;;;;;20.15;88.94;100461.23;106262;1279;75083;-82
2022/08/18 05:58:11;;;;;;;26.00;21.00;;;;;;;20.25;88.57;100462.33;105838;1277;73060;-82
2022/08/18 06:00:39;;;;;;;25.60;21.80;;;;;;;20.30;88.14;100464.99;105612;1279;62317;-83
2022/08/18 06:03:20;;;;;;;27.80;22.30;;;;;;;20.31;88.03;100469.52;105864;1279;61169;-85
2022/08/18 06:05:56;;;;;;;26.10;22.80;;;;;;;20.35;88.06;100475.95;106466;1279;76028;-84
2022/08/18 06:08:29;;;;;;;23.60;21.00;;;;;;;20.43;87.88;100472.89;105831;1279;71198;-83
2022/08/18 06:10:55;;;;;;;27.90;23.50;;;;;;;20.47;87.07;100480.34;106218;1278;72967;-85
2022/08/18 06:13:22;;;;;;;25.00;21.90;;;;;;;20.56;87.06;100481.30;106162;1278;62325;-85
2022/08/18 06:16:02;;;;;;;23.50;20.40;;;;;;;20.69;87.24;100485.93;106621;1278;61391;-87
2022/08/18 06:19:11;;;;;;;25.90;21.70;;;;;;;20.72;85.93;100491.85;105953;1279;75207;-85
2022/08/18 06:22:04;;;;;;;23.80;19.80;;;;;;;20.75;85.81;100487.46;106209;1277;72916;-85
2022/08/18 06:25:00;;;;;;;24.00;20.30;;;;;;;20.83;85.69;100492.06;105588;1277;72729;-86
2022/08/18 06:27:42;;;;;;;28.30;20.90;;;;;;;20.87;85.10;100493.63;105386;1279;62167;-85
2022/08/18 06:30:18;;;;;;;25.10;22.00;;;;;;;20.87;84.89;100487.69;106464;1278;62638;-85
2022/08/18 06:33:22;;;;;;;26.20;21.40;;;;;;;20.86;84.77;100492.41;106411;1277;75103;-85
2022/08/18 06:36:01;;;;;;;25.60;22.10;;;;;;;20.86;85.06;100494.80;106175;1277;71944;-86
2022/08/18 06:38:40;;;;;;;27.50;23.10;;;;;;;20.86;84.89;100495.94;106004;1279;73473;-85
2022/08/18 06:41:18;;;;;;;26.00;23.00;;;;;;;20.90;84.92;100501.11;106076;1278;62271;-85
2022/08/18 06:44:20;;;;;;;26.80;23.50;;;;;;;20.94;84.80;100501.98;106013;1279;62414;-85
2022/08/18 06:47:08;;;;;;;30.60;25.50;;;;;;;20.94;84.64;100501.98;106313;1277;74437;-85
2022/08/18 06:49:53;;;;;;;28.30;23.80;;;;;;;20.97;84.54;100500.51;106336;1279;70058;-84
2022/08/18 06:52:21;;;;;;;26.70;23.50;;;;;;;21.01;84.24;100502.52;105454;1279;74288;-84
2022/08/18 06:54:49;;;;;;;29.70;25.50;;;;;;;21.04;83.93;100503.58;105951;1278;61996;-82
2022/08/18 06:57:31;;;;;;;29.60;25.60;;;;;;;21.04;83.74;100508.48;105988;1279;62469;-85
2022/08/18 07:00:20;;;;;;;32.40;27.20;;;;;;;21.03;83.87;100510.29;106531;1277;74938;-86
2022/08/18 07:03:10;;;;;;;35.50;28.40;;;;;;;21.02;83.97;100506.39;106040;1279;71229;-85
2022/08/18 07:06:00;;;;;;;33.00;27.70;;;;;;;21.07;84.04;100514.62;105890;1279;73032;-85
2022/08/18 07:08:40;;;;;;;32.00;26.20;;;;;;;21.21;83.86;100512.53;106175;1279;63047;-85
2022/08/18 07:11:31;;;;;;;30.70;26.50;;;;;;;21.37;83.00;100521.52;106128;1279;61223;-85
2022/08/18 07:14:10;;;;;;;29.30;25.30;;;;;;;21.41;82.37;100530.40;106472;1277;76029;-86
2022/08/18 07:16:42;;;;;;;30.40;25.90;;;;;;;21.39;81.78;100522.33;106037;1279;74488;-84
2022/08/18 07:19:30;;;;;;;28.10;24.90;;;;;;;21.43;81.51;100530.43;106750;1267;74505;-88
2022/08/18 07:22:11;;;;;;;34.00;27.60;;;;;;;21.38;80.95;100536.33;106456;1275;62136;-83
2022/08/18 07:24:59;;;;;;;35.90;28.60;;;;;;;21.39;80.85;100539.10;106422;1275;61640;-84
2022/08/18 07:27:44;;;;;;;36.10;29.70;;;;;;;21.47;80.68;100537.00;106375;1276;75095;-84
2022/08/18 07:30:18;;;;;;;34.20;28.40;;;;;;;21.55;80.44;100541.00;106333;1276;71452;-86
2022/08/18 07:32:55;;;;;;;33.60;29.00;;;;;;;21.56;80.10;100541.88;106633;1274;73907;-87
2022/08/18 07:35:34;;;;;;;36.20;29.60;;;;;;;21.56;80.21;100540.48;106181;1275;65342;-87
2022/08/18 07:38:16;;;;;;;34.40;28.40;;;;;;;21.54;80.24;100540.77;107627;1276;59499;-87
2022/08/18 07:41:22;;;;;;;38.50;30.50;;;;;;;21.53;79.80;100544.21;107019;1276;76441;-86
2022/08/18 07:46:48;;;;;;;41.60;28.90;;;;;;;21.61;79.89;100546.73;106871;1267;70429;-87
2022/08/18 07:49:20;;;;;;;36.70;27.30;;;;;;;21.70;79.70;100555.16;106171;1276;63707;-86
2022/08/18 07:54:48;;;;;;;34.90;28.50;;;;;;;21.71;78.04;100553.43;105764;1276;74921;-81
2022/08/18 07:57:38;;;;;;;36.10;27.20;;;;;;;21.73;77.87;100554.06;106587;1276;72481;-80
2022/08/18 08:00:24;;;;;;;38.10;29.50;;;;;;;21.87;78.00;100549.08;105846;1277;73019;-79
2022/08/18 08:03:20;;;;;;;37.90;30.60;;;;;;;21.99;77.71;100553.04;105495;1276;64456;-80
2022/08/18 08:06:11;;;;;;;33.80;26.20;;;;;;;22.15;77.26;100550.02;106168;1276;61703;-80
2022/08/18 08:08:48;;;;;;;27.60;22.50;;;;;;;22.31;75.82;100550.95;106003;1276;77762;-80
2022/08/18 08:11:29;;;;;;;27.00;22.00;;;;;;;22.32;73.94;100551.44;105940;1275;72656;-79
2022/08/18 08:14:18;;;;;;;24.80;20.90;;;;;;;22.45;74.24;100552.96;105615;1276;74083;-80
2022/08/18 08:17:03;;;;;;;26.30;21.70;;;;;;;22.58;73.55;100554.09;105968;1276;62083;-80
2022/08/18 08:19:54;;;;;;;28.20;23.80;;;;;;;22.71;72.77;100548.73;105722;1276;61530;-79
2022/08/18 08:22:48;;;;;;;28.60;22.70;;;;;;;22.81;71.93;100551.28;105881;1276;76173;-81
2022/08/18 08:25:20;;;;;;;29.10;22.50;;;;;;;22.88;72.16;100545.16;105985;1276;72693;-80
2022/08/18 08:28:26;;;;;;;25.60;22.00;;;;;;;22.98;72.19;100548.81;105738;1276;75004;-81
2022/08/18 08:31:19;;;;;;;27.60;22.30;;;;;;;23.08;71.93;100547.64;106030;1276;63004;-81
2022/08/18 08:34:24;;;;;;;29.10;23.50;;;;;;;22.99;71.12;100557.27;105851;1277;61268;-79
2022/08/18 08:37:08;;;;;;;32.10;24.30;;;;;;;22.90;70.77;100557.84;105929;1278;76327;-82
2022/08/18 08:39:44;;;;;;;31.90;25.00;;;;;;;22.77;70.74;100553.31;105852;1276;71352;-79
2022/08/18 08:42:33;;;;;;;32.80;26.30;;;;;;;22.84;71.39;100558.08;105697;1276;72641;-80
2022/08/18 08:45:17;;;;;;;34.50;25.60;;;;;;;22.78;70.77;100560.14;106136;1276;61957;-79
2022/08/18 08:48:05;;;;;;;30.30;23.60;;;;;;;22.82;70.98;100560.70;106141;1276;61818;-80
2022/08/18 08:50:43;;;;;;;33.20;24.70;;;;;;;22.87;70.42;100560.95;105724;1276;76129;-82
2022/08/18 08:53:22;;;;;;;33.20;24.20;;;;;;;22.98;70.00;100559.84;105976;1276;72412;-82
2022/08/18 08:55:54;;;;;;;33.40;24.90;;;;;;;22.98;69.76;100561.58;106068;1276;73006;-80
2022/08/18 08:58:35;;;;;;;31.40;23.10;;;;;;;22.91;69.09;100558.70;105857;1276;63126;-81
2022/08/18 09:01:04;;;;;;;30.10;23.60;;;;;;;22.89;69.54;100561.03;105522;1278;61205;-80
2022/08/18 09:03:56;;;;;;;31.80;24.50;;;;;;;22.87;69.18;100552.09;106283;1276;77268;-80
2022/08/18 09:06:31;;;;;;;29.60;24.10;;;;;;;22.92;69.58;100551.73;106287;1277;71443;-80
2022/08/18 09:09:33;;;;;;;28.90;22.50;;;;;;;22.97;69.17;100544.84;106316;1276;74418;-81
2022/08/18 09:12:18;;;;;;;31.30;24.40;;;;;;;22.89;69.42;100539.73;105978;1276;62097;-81
2022/08/18 09:14:51;;;;;;;29.30;23.00;;;;;;;22.89;69.78;100540.25;106600;1276;60343;-79
2022/08/18 09:17:42;;;;;;;24.90;21.10;;;;;;;22.92;69.04;100545.03;106133;1278;75542;-79
2022/08/18 09:20:48;;;;;;;26.30;21.30;;;;;;;22.95;68.85;100541.10;106416;1274;74321;-79
2022/08/18 09:23:25;;;;;;;30.10;23.10;;;;;;;23.01;68.94;100538.67;106272;1276;73543;-79
2022/08/18 09:25:59;;;;;;;27.80;22.20;;;;;;;23.11;68.45;100534.25;105977;1276;64530;-79
2022/08/18 09:28:29;;;;;;;23.60;21.00;;;;;;;23.28;68.15;100534.12;106639;1275;62682;-78
2022/08/18 09:31:02;;;;;;;24.60;20.80;;;;;;;23.40;67.53;100537.27;106694;1276;74951;-83
2022/08/18 09:33:43;;;;;;;21.70;19.10;;;;;;;23.51;66.95;100541.25;106537;1276;71766;-79
2022/08/18 09:36:36;;;;;;;23.90;20.00;;;;;;;23.61;66.66;100545.83;106407;1276;73320;-79
2022/08/18 09:42:07;;;;;;;22.60;19.70;;;;;;;23.84;65.50;100556.12;107094;1276;61137;-80
2022/08/18 09:44:46;;;;;;;24.30;20.40;;;;;;;23.91;65.25;100557.83;106212;1276;76179;-81
2022/08/18 09:47:23;;;;;;;24.40;21.00;;;;;;;24.06;65.57;100562.02;106205;1276;69975;-84
2022/08/18 09:50:02;;;;;;;23.40;20.20;;;;;;;24.21;64.88;100562.44;106005;1276;73498;-80
2022/08/18 09:52:32;;;;;;;20.60;18.40;;;;;;;24.36;64.72;100558.38;106315;1276;63358;-83
2022/08/18 09:55:26;;;;;;;21.50;17.30;;;;;;;24.48;63.97;100560.52;106166;1276;61445;-84
2022/08/18 09:58:36;;;;;;;17.80;15.70;;;;;;;24.63;62.81;100561.29;105944;1276;75071;-85
2022/08/18 10:01:21;;;;;;;21.70;18.60;;;;;;;24.92;62.92;100558.92;106124;1278;71163;-85
2022/08/18 10:04:19;;;;;;;21.80;18.20;;;;;;;25.24;62.89;100550.98;102951;1278;3757995;-85
2022/08/18 10:06:48;;;;;;;21.80;19.70;;;;;;;25.41;60.88;100562.55;105997;1279;61912;-85
2022/08/18 10:09:36;;;;;;;22.80;18.80;;;;;;;25.37;60.57;100561.65;106250;1276;61868;-84
2022/08/18 10:12:25;;;;;;;22.10;17.30;;;;;;;25.50;60.69;100558.62;106346;1276;75991;-87
2022/08/18 10:15:20;;;;;;;21.00;17.60;;;;;;;25.56;59.37;100562.55;106219;1277;71521;-84
2022/08/18 10:18:08;;;;;;;20.30;17.80;;;;;;;25.56;59.15;100562.98;105841;1276;74066;-84
2022/08/18 10:20:48;;;;;;;19.40;16.40;;;;;;;25.49;59.61;100558.02;106206;1276;61344;-85
2022/08/18 10:23:58;;;;;;;17.60;15.60;;;;;;;25.38;59.56;100561.38;105894;1276;61524;-85
2022/08/18 10:26:50;;;;;;;18.90;17.00;;;;;;;25.40;59.81;100556.30;105627;1282;77102;-85
2022/08/18 10:29:24;;;;;;;18.60;16.80;;;;;;;25.30;60.10;100553.70;105611;1283;71190;-84
2022/08/18 10:31:54;;;;;;;18.20;16.20;;;;;;;25.30;60.26;100556.30;106043;1276;72665;-84
2022/08/18 10:34:39;;;;;;;19.30;17.30;;;;;;;25.23;60.26;100560.54;106049;1278;61631;-85
2022/08/18 10:37:46;;;;;;;17.20;15.50;;;;;;;25.15;60.48;100566.52;105983;1276;61275;-85
2022/08/18 10:40:21;;;;;;;17.10;15.30;;;;;;;25.17;60.49;100565.77;107745;1276;73598;-84
2022/08/18 10:43:22;;;;;;;16.50;14.80;;;;;;;25.24;60.31;100556.91;106518;1279;72760;-84
2022/08/18 10:46:25;;;;;;;17.10;15.40;;;;;;;25.43;59.93;100553.26;106937;1276;73119;-84
2022/08/18 10:49:15;;;;;;;13.70;12.30;;;;;;;25.57;59.03;100546.80;107537;1276;61273;-84
2022/08/18 10:51:51;;;;;;;14.40;12.90;;;;;;;25.59;58.02;100542.92;106010;1276;61786;-84
2022/08/18 10:54:59;;;;;;;16.00;14.40;;;;;;;25.65;58.55;100540.55;107173;1276;75092;-84
2022/08/18 10:57:38;;;;;;;15.20;13.50;;;;;;;25.74;58.81;100541.06;106962;1278;71973;-85
2022/08/18 11:00:12;;;;;;;13.70;12.30;;;;;;;25.81;58.03;100548.48;106768;1276;72979;-84
2022/08/18 11:03:03;;;;;;;12.60;11.20;;;;;;;25.86;57.07;100548.46;107137;1276;63334;-85
2022/08/18 11:06:00;;;;;;;16.80;14.80;;;;;;;25.82;57.52;100549.71;106669;1278;59127;-84
2022/08/18 11:08:26;;;;;;;14.20;12.00;;;;;;;25.78;57.98;100544.58;106875;1276;76373;-84
2022/08/18 11:10:53;;;;;;;13.90;12.50;;;;;;;25.86;57.86;100554.09;106260;1276;72491;-85
2022/08/18 11:14:18;;;;;;;14.30;12.80;;;;;;;25.89;57.32;100559.96;106824;1276;74385;-85
2022/08/18 11:17:12;;;;;;;16.40;13.90;;;;;;;25.99;57.07;100563.83;106611;1277;61283;-84
2022/08/18 11:19:44;;;;;;;11.90;10.60;;;;;;;26.11;56.83;100566.27;107392;1278;61159;-85
2022/08/18 11:22:55;;;;;;;12.50;11.30;;;;;;;26.21;56.67;100560.54;106511;1276;76787;-84
2022/08/18 11:25:30;;;;;;;13.30;11.90;;;;;;;26.38;55.93;100555.88;106025;1276;71362;-83
2022/08/18 11:27:58;;;;;;;11.00;9.90;;;;;;;26.50;55.03;100542.67;106566;1276;75286;-84
2022/08/18 11:30:33;;;;;;;10.00;9.00;;;;;;;26.47;54.78;100535.73;106463;1277;61189;-85
2022/08/18 11:33:03;;;;;;;11.90;9.50;;;;;;;26.64;54.59;100528.38;106456;1276;61295;-84
2022/08/18 11:35:34;;;;;;;9.70;8.40;;;;;;;26.84;53.86;100528.46;106437;1276;73960;-84
2022/08/18 11:38:12;;;;;;;9.10;7.90;;;;;;;26.91;52.57;100530.45;106238;1276;71420;-84
2022/08/18 11:40:51;;;;;;;7.90;6.70;;;;;;;27.03;51.42;100531.36;106125;1276;71686;-84
2022/08/18 11:43:38;;;;;;;9.20;8.30;;;;;;;27.24;50.82;100533.76;106198;1278;61324;-84
2022/08/18 11:46:25;;;;;;;8.20;7.00;;;;;;;27.33;51.27;100538.07;106199;1276;61274;-83
2022/08/18 11:48:56;;;;;;;9.60;8.30;;;;;;;27.43;51.16;100541.10;106261;1276;73066;-84
2022/08/18 11:51:27;;;;;;;9.10;8.10;;;;;;;27.61;50.04;100536.29;106175;1279;71477;-83
2022/08/18 11:54:20;;;;;;;10.30;8.90;;;;;;;27.76;50.22;100533.20;106873;1276;72972;-86
2022/08/18 11:56:49;;;;;;;9.10;8.20;;;;;;;27.86;49.24;100532.80;106906;1276;61197;-82
2022/08/18 11:59:24;;;;;;;8.00;7.20;;;;;;;28.11;48.36;100530.55;106102;1274;61851;-84
2022/08/18 12:02:20;;;;;;;7.90;7.10;;;;;;;28.29;47.98;100528.45;106273;1276;76584;-83
2022/08/18 12:05:02;;;;;;;7.30;6.30;;;;;;;28.69;48.31;100527.13;106940;1276;72643;-84